Time;durP1;ratioP1;P1;durP2;ratioP2;P2;SDS_P1;SDS_P2;PMS_P1;PMS_P2;Temp;Humidity;BMP_temperature;BMP_pressure;BME280_temperature;BME280_humidity;BME280_pressure;Samples;Min_cycle;Max_cycle;Signal;HPM_P1;HPM_P2
2023/05/10 00:00:41;;;;;;;6.72;5.05;;;16.20;99.90;;;;;;5023166;28;20236;-33
2023/05/10 00:03:10;;;;;;;7.35;5.15;;;16.20;99.90;;;;;;5024332;28;20217;-33
2023/05/10 00:05:38;;;;;;;7.40;5.43;;;16.20;99.90;;;;;;5023259;28;20212;-33
2023/05/10 00:08:10;;;;;;;5.78;4.85;;;16.20;99.90;;;;;;5023470;28;20772;-33
2023/05/10 00:10:37;;;;;;;8.00;5.03;;;16.20;99.90;;;;;;5044081;28;20682;-33
2023/05/10 00:13:09;;;;;;;8.77;5.43;;;16.10;99.90;;;;;;5044423;28;20998;-33
2023/05/10 00:15:36;;;;;;;6.85;4.90;;;16.10;99.90;;;;;;5044505;28;20281;-33
2023/05/10 00:18:03;;;;;;;8.00;4.93;;;16.10;99.90;;;;;;5044886;28;20637;-33
2023/05/10 00:20:33;;;;;;;7.72;5.07;;;16.10;99.90;;;;;;5044601;28;20196;-33
2023/05/10 00:23:02;;;;;;;9.23;5.57;;;16.10;99.90;;;;;;5042930;28;20206;-33
2023/05/10 00:25:29;;;;;;;9.43;5.38;;;16.00;99.90;;;;;;5043903;28;20262;-33
2023/05/10 00:28:01;;;;;;;7.78;5.22;;;16.00;99.90;;;;;;5044082;28;20223;-33
2023/05/10 00:30:28;;;;;;;10.00;5.80;;;16.10;99.90;;;;;;5048171;28;20200;-33
2023/05/10 00:32:57;;;;;;;7.15;5.53;;;16.00;99.90;;;;;;5047955;28;20311;-33
2023/05/10 00:35:27;;;;;;;7.13;5.10;;;16.00;99.90;;;;;;5048047;28;20212;-33
2023/05/10 00:37:57;;;;;;;7.78;5.03;;;16.00;99.90;;;;;;5048193;28;20211;-33
2023/05/10 00:40:26;;;;;;;11.00;5.75;;;16.00;99.90;;;;;;5046667;28;20625;-33
2023/05/10 00:42:53;;;;;;;8.07;5.73;;;16.00;99.90;;;;;;5047609;28;20243;-33
2023/05/10 00:45:20;;;;;;;8.37;5.87;;;16.00;99.90;;;;;;5046668;28;20765;-32
2023/05/10 00:47:51;;;;;;;9.83;6.03;;;16.00;99.90;;;;;;5046829;28;20678;-33
2023/05/10 00:50:19;;;;;;;9.43;5.77;;;16.00;99.90;;;;;;5047849;28;20724;-33
2023/05/10 00:52:51;;;;;;;7.65;5.57;;;16.00;99.90;;;;;;5046071;28;20299;-33
2023/05/10 00:55:21;;;;;;;7.20;5.73;;;16.00;99.90;;;;;;5047563;28;20224;-33
2023/05/10 00:57:53;;;;;;;10.07;6.30;;;16.00;99.90;;;;;;5044885;28;20251;-33
2023/05/10 01:00:21;;;;;;;9.32;6.40;;;16.00;99.90;;;;;;5027891;28;20304;-33
2023/05/10 01:02:50;;;;;;;8.35;6.43;;;16.00;99.90;;;;;;5029423;28;20304;-33
2023/05/10 01:05:19;;;;;;;10.25;6.68;;;16.00;99.90;;;;;;5040552;28;20208;-33
2023/05/10 01:07:47;;;;;;;7.93;5.70;;;16.00;99.90;;;;;;5032051;28;20209;-33
2023/05/10 01:10:15;;;;;;;7.30;5.77;;;16.00;99.90;;;;;;5033192;28;20243;-33
2023/05/10 01:12:49;;;;;;;9.40;6.27;;;15.90;99.90;;;;;;5047273;28;20215;-33
2023/05/10 01:15:18;;;;;;;9.80;6.37;;;16.00;99.90;;;;;;5040178;28;20224;-33
2023/05/10 01:17:48;;;;;;;11.15;6.75;;;15.90;99.90;;;;;;5018023;28;20734;-33
2023/05/10 01:20:20;;;;;;;9.03;5.80;;;15.90;99.90;;;;;;5043825;28;20216;-33
2023/05/10 01:23:09;;;;;;;11.57;6.60;;;15.90;99.90;;;;;;5047316;28;20321;-33
2023/05/10 01:26:17;;;;;;;9.50;6.17;;;16.00;99.90;;;;;;5045627;28;20286;-33
2023/05/10 01:28:53;;;;;;;12.13;6.70;;;16.00;99.90;;;;;;5047185;28;20227;-33
2023/05/10 01:31:52;;;;;;;8.15;6.50;;;15.90;99.90;;;;;;5046898;28;20208;-33
2023/05/10 01:34:27;;;;;;;11.97;6.93;;;15.90;99.90;;;;;;5035384;28;20216;-33
2023/05/10 01:37:07;;;;;;;9.00;6.20;;;15.90;99.90;;;;;;5027013;28;20725;-33
2023/05/10 01:40:06;;;;;;;12.57;7.57;;;15.90;99.90;;;;;;5025071;28;20259;-33
2023/05/10 01:42:53;;;;;;;10.43;7.43;;;15.90;99.90;;;;;;5026271;28;20205;-32
2023/05/10 01:45:47;;;;;;;12.77;7.53;;;15.90;99.90;;;;;;5027350;28;20211;-33
2023/05/10 01:48:15;;;;;;;11.77;7.20;;;15.90;99.90;;;;;;5027340;28;20621;-33
2023/05/10 01:50:45;;;;;;;10.55;7.60;;;15.90;99.90;;;;;;5026180;28;20209;-33
2023/05/10 01:53:18;;;;;;;10.32;7.90;;;15.90;99.90;;;;;;5044080;28;20215;-33
2023/05/10 01:55:52;;;;;;;12.30;8.00;;;15.90;99.90;;;;;;5025776;28;20259;-33
2023/05/10 01:58:30;;;;;;;11.87;8.20;;;15.90;99.90;;;;;;5025547;28;20652;-33
2023/05/10 02:01:03;;;;;;;9.20;7.47;;;15.90;99.90;;;;;;5026907;28;20589;-33
2023/05/10 02:03:39;;;;;;;12.60;7.82;;;15.90;99.90;;;;;;5025682;28;20594;-33
2023/05/10 02:06:16;;;;;;;12.45;8.05;;;15.80;99.90;;;;;;5026947;28;20247;-33
2023/05/10 02:08:47;;;;;;;11.23;7.82;;;15.90;99.90;;;;;;5026818;28;20220;-33
2023/05/10 02:11:16;;;;;;;9.20;7.45;;;15.80;99.90;;;;;;5025031;28;20200;-33
2023/05/10 02:13:47;;;;;;;12.95;8.45;;;15.80;99.90;;;;;;5026485;28;20251;-33
2023/05/10 02:16:22;;;;;;;10.15;7.95;;;15.80;99.90;;;;;;5025192;28;20847;-33
2023/05/10 02:18:56;;;;;;;10.43;8.15;;;15.80;99.90;;;;;;5027335;28;20208;-33
2023/05/10 02:21:27;;;;;;;11.70;8.93;;;15.80;99.90;;;;;;5025213;28;20311;-33
2023/05/10 02:23:59;;;;;;;14.23;8.05;;;15.80;99.90;;;;;;5024829;28;20309;-33
2023/05/10 02:26:29;;;;;;;12.70;8.00;;;15.80;99.90;;;;;;5045970;28;21037;-33
2023/05/10 02:28:58;;;;;;;10.90;8.73;;;15.80;99.90;;;;;;5028481;28;20588;-33
2023/05/10 02:31:30;;;;;;;13.05;8.35;;;15.80;99.90;;;;;;5045016;28;20220;-33
2023/05/10 02:34:03;;;;;;;11.37;8.80;;;15.80;99.90;;;;;;5046237;28;20196;-33
2023/05/10 02:36:31;;;;;;;10.90;8.52;;;15.80;99.90;;;;;;5046272;28;20280;-33
2023/05/10 02:39:00;;;;;;;10.63;8.38;;;15.80;99.90;;;;;;5044190;28;20242;-33
2023/05/10 02:41:32;;;;;;;12.83;8.83;;;15.80;99.90;;;;;;5043730;28;20302;-33
2023/05/10 02:44:03;;;;;;;11.90;8.07;;;15.80;99.90;;;;;;5044540;28;20719;-33
2023/05/10 02:46:30;;;;;;;13.80;9.50;;;15.80;99.90;;;;;;5046024;28;20200;-33
2023/05/10 02:49:03;;;;;;;13.30;9.02;;;15.80;99.90;;;;;;5028277;28;20251;-33
2023/05/10 02:51:36;;;;;;;13.45;8.82;;;15.90;99.90;;;;;;5043132;28;20551;-33
2023/05/10 02:54:15;;;;;;;13.35;9.02;;;15.80;99.90;;;;;;5045942;28;20214;-33
2023/05/10 02:57:08;;;;;;;13.20;9.00;;;15.90;99.90;;;;;;5046006;28;20246;-33
2023/05/10 02:59:38;;;;;;;12.27;9.13;;;15.90;99.90;;;;;;5030605;28;20237;-33
2023/05/10 03:02:06;;;;;;;12.15;9.27;;;15.80;99.90;;;;;;5024507;28;20230;-33
2023/05/10 03:04:38;;;;;;;10.68;8.80;;;15.80;99.90;;;;;;5024284;28;20204;-33
2023/05/10 03:07:05;;;;;;;12.15;9.85;;;15.90;99.90;;;;;;5025786;28;20220;-33
2023/05/10 03:09:35;;;;;;;13.77;9.63;;;15.90;99.90;;;;;;5023601;28;20224;-33
2023/05/10 03:12:23;;;;;;;12.00;9.27;;;15.90;99.90;;;;;;5025509;28;20200;-33
2023/05/10 03:15:38;;;;;;;13.32;8.98;;;15.90;99.90;;;;;;5025650;28;20331;-33
2023/05/10 03:18:10;;;;;;;11.80;9.32;;;15.90;99.90;;;;;;5028421;28;20644;-33
2023/05/10 03:20:57;;;;;;;12.40;8.73;;;15.90;99.90;;;;;;5025724;28;20204;-33
2023/05/10 03:23:40;;;;;;;11.87;8.63;;;15.90;99.90;;;;;;5024231;28;20240;-33
2023/05/10 03:26:08;;;;;;;12.32;8.98;;;15.90;99.90;;;;;;5023889;28;20239;-33
2023/05/10 03:28:39;;;;;;;12.95;9.13;;;15.90;99.90;;;;;;5023640;28;20201;-33
2023/05/10 03:31:07;;;;;;;13.18;9.50;;;15.90;99.90;;;;;;5023937;28;20221;-34
2023/05/10 03:33:34;;;;;;;12.65;9.13;;;15.90;99.90;;;;;;5024675;28;20243;-34
2023/05/10 03:36:03;;;;;;;14.25;9.50;;;15.90;99.90;;;;;;5025777;28;20258;-35
2023/05/10 03:38:35;;;;;;;12.63;9.30;;;15.80;99.90;;;;;;5025150;28;20201;-35
2023/05/10 03:41:02;;;;;;;13.03;8.90;;;15.90;99.90;;;;;;5007278;28;20220;-35
2023/05/10 03:43:29;;;;;;;10.70;7.47;;;15.90;99.90;;;;;;5023932;28;20211;-35
2023/05/10 03:46:01;;;;;;;9.30;6.60;;;15.90;99.90;;;;;;5023780;28;20240;-36
2023/05/10 03:48:28;;;;;;;9.00;7.20;;;15.80;99.90;;;;;;5023718;28;20308;-36
2023/05/10 03:50:58;;;;;;;9.75;7.03;;;15.80;99.90;;;;;;5033610;28;20247;-35
2023/05/10 03:53:27;;;;;;;9.17;6.40;;;15.80;99.90;;;;;;5045001;28;20216;-36
2023/05/10 03:55:57;;;;;;;8.95;7.13;;;15.80;99.90;;;;;;5026774;28;20193;-36
2023/05/10 03:58:29;;;;;;;8.35;6.28;;;15.80;99.90;;;;;;5045042;28;20326;-36
2023/05/10 04:00:58;;;;;;;9.63;6.97;;;15.80;99.90;;;;;;5044718;28;20283;-36
2023/05/10 04:03:27;;;;;;;10.47;8.00;;;15.80;99.90;;;;;;5044128;28;20677;-36
2023/05/10 04:06:03;;;;;;;11.00;8.63;;;15.80;99.90;;;;;;5042578;28;20200;-37
2023/05/10 04:08:33;;;;;;;14.00;9.98;;;15.80;99.90;;;;;;5023041;28;20207;-37
2023/05/10 04:11:07;;;;;;;16.43;11.70;;;15.70;99.90;;;;;;5024395;28;20256;-37
2023/05/10 04:13:37;;;;;;;14.63;11.17;;;15.70;99.90;;;;;;5022927;28;20626;-37
2023/05/10 04:16:09;;;;;;;16.83;12.20;;;15.60;99.90;;;;;;5024461;28;20702;-37
2023/05/10 04:18:39;;;;;;;16.60;12.52;;;15.60;99.90;;;;;;5025466;28;20205;-36
2023/05/10 04:21:13;;;;;;;14.73;11.73;;;15.60;99.90;;;;;;5024619;28;20229;-36
2023/05/10 04:23:43;;;;;;;16.60;12.00;;;15.60;99.90;;;;;;5028152;28;20269;-37
2023/05/10 04:26:13;;;;;;;16.27;12.77;;;15.60;99.90;;;;;;5043422;28;20235;-36
2023/05/10 04:28:43;;;;;;;17.80;13.17;;;15.50;99.90;;;;;;5042473;28;20196;-38
2023/05/10 04:31:12;;;;;;;16.05;12.15;;;15.50;99.90;;;;;;5042387;28;20224;-37
2023/05/10 04:33:42;;;;;;;16.30;13.07;;;15.50;99.90;;;;;;5042284;28;20291;-37
2023/05/10 04:36:14;;;;;;;19.47;13.03;;;15.50;99.90;;;;;;5043999;28;20205;-37
2023/05/10 04:38:42;;;;;;;17.92;13.20;;;15.40;99.90;;;;;;5044107;28;20612;-37
2023/05/10 04:41:14;;;;;;;16.53;12.93;;;15.40;99.90;;;;;;5041689;28;20208;-37
2023/05/10 04:43:44;;;;;;;18.77;13.33;;;15.40;99.90;;;;;;5043820;28;20208;-37
2023/05/10 04:46:11;;;;;;;16.37;12.60;;;15.30;99.90;;;;;;5026047;28;20278;-38
2023/05/10 04:48:40;;;;;;;15.53;12.23;;;15.30;99.90;;;;;;5044033;28;20253;-37
2023/05/10 04:51:08;;;;;;;17.40;13.05;;;15.30;99.90;;;;;;5042245;28;20232;-38
2023/05/10 04:53:37;;;;;;;16.30;13.37;;;15.30;99.90;;;;;;5042393;28;20774;-37
2023/05/10 04:56:05;;;;;;;19.40;13.60;;;15.30;99.90;;;;;;5041912;28;20200;-37
2023/05/10 04:58:32;;;;;;;16.10;12.50;;;15.30;99.90;;;;;;5030138;28;20655;-36
2023/05/10 05:01:10;;;;;;;18.10;13.60;;;15.30;99.90;;;;;;5039760;28;20204;-36
2023/05/10 05:03:39;;;;;;;16.95;13.98;;;15.30;99.90;;;;;;5024445;28;20270;-36
2023/05/10 05:06:07;;;;;;;17.90;14.53;;;15.30;99.90;;;;;;5024213;28;20294;-36
2023/05/10 05:08:39;;;;;;;18.77;14.30;;;15.30;99.90;;;;;;5022793;28;20577;-36
2023/05/10 05:11:06;;;;;;;16.30;13.07;;;15.30;99.90;;;;;;5023902;28;20656;-37
2023/05/10 05:13:35;;;;;;;17.23;12.52;;;15.30;99.90;;;;;;5039039;28;20308;-37
2023/05/10 05:16:03;;;;;;;19.92;14.20;;;15.30;99.90;;;;;;5027763;28;20208;-37
2023/05/10 05:18:30;;;;;;;20.35;15.00;;;15.30;99.90;;;;;;5042731;28;20200;-37
2023/05/10 05:20:57;;;;;;;21.70;15.50;;;15.30;99.90;;;;;;5042483;28;20201;-36
2023/05/10 05:23:30;;;;;;;19.30;14.37;;;15.30;99.90;;;;;;5041820;28;20205;-37
2023/05/10 05:26:01;;;;;;;20.00;14.60;;;15.30;99.90;;;;;;5042437;28;20212;-36
2023/05/10 05:28:32;;;;;;;18.60;15.40;;;15.40;99.90;;;;;;5027190;28;20765;-36
2023/05/10 05:30:59;;;;;;;20.13;14.80;;;15.40;99.90;;;;;;5025624;28;20216;-36
2023/05/10 05:33:31;;;;;;;19.47;15.53;;;15.40;99.90;;;;;;5027268;28;20316;-36
2023/05/10 05:36:03;;;;;;;18.60;15.73;;;15.40;99.90;;;;;;5025466;28;20215;-36
2023/05/10 05:38:31;;;;;;;20.10;16.10;;;15.40;99.90;;;;;;5025410;28;20301;-36
2023/05/10 05:41:02;;;;;;;20.30;16.58;;;15.40;99.90;;;;;;5025380;28;20248;-36
2023/05/10 05:43:30;;;;;;;24.00;15.13;;;15.40;99.90;;;;;;5026809;28;20288;-36
2023/05/10 05:45:59;;;;;;;19.58;16.00;;;15.40;99.90;;;;;;5026850;28;20221;-36
2023/05/10 05:48:26;;;;;;;22.87;17.13;;;15.40;99.90;;;;;;5027345;28;20216;-36
2023/05/10 05:50:57;;;;;;;19.97;16.33;;;15.50;99.90;;;;;;5025082;28;20623;-36
2023/05/10 05:53:27;;;;;;;19.87;15.50;;;15.50;99.90;;;;;;5026424;28;20209;-36
2023/05/10 05:55:56;;;;;;;20.88;16.48;;;15.50;99.90;;;;;;5026443;28;20221;-35
2023/05/10 05:58:24;;;;;;;23.00;16.90;;;15.50;99.90;;;;;;5026777;28;20258;-36
2023/05/10 06:00:54;;;;;;;21.35;15.27;;;15.40;99.90;;;;;;5025456;28;20201;-36
2023/05/10 06:03:26;;;;;;;17.60;15.15;;;15.50;99.90;;;;;;5027051;28;20290;-36
2023/05/10 06:05:56;;;;;;;25.38;16.48;;;15.50;99.90;;;;;;5048582;28;20204;-36
2023/05/10 06:08:25;;;;;;;24.00;16.60;;;15.50;99.90;;;;;;5047062;28;20192;-36
2023/05/10 06:10:57;;;;;;;28.20;17.20;;;15.50;99.90;;;;;;5046720;28;20216;-36
2023/05/10 06:13:28;;;;;;;25.20;15.03;;;15.50;99.90;;;;;;5045372;28;20206;-35
2023/05/10 06:15:58;;;;;;;33.43;17.60;;;15.50;99.90;;;;;;5046864;28;20204;-36
2023/05/10 06:18:25;;;;;;;32.27;17.30;;;15.50;99.90;;;;;;5044931;28;20662;-36
2023/05/10 06:20:52;;;;;;;21.87;15.70;;;15.60;99.90;;;;;;5044864;28;20311;-36
2023/05/10 06:23:27;;;;;;;21.00;16.70;;;15.60;99.90;;;;;;5045105;28;20727;-35
2023/05/10 06:25:59;;;;;;;20.13;15.80;;;15.60;99.90;;;;;;5045464;28;20322;-35
2023/05/10 06:28:26;;;;;;;20.27;16.53;;;15.60;99.90;;;;;;5045681;28;20227;-35
2023/05/10 06:30:58;;;;;;;20.07;16.87;;;15.60;99.90;;;;;;5045683;28;20776;-35
2023/05/10 06:33:25;;;;;;;21.03;17.23;;;15.60;99.90;;;;;;5046027;28;20285;-35
2023/05/10 06:35:52;;;;;;;21.23;16.73;;;15.70;99.90;;;;;;5045424;28;20197;-35
2023/05/10 06:38:22;;;;;;;20.97;16.20;;;15.70;99.90;;;;;;5043806;28;20302;-35
2023/05/10 06:40:51;;;;;;;20.77;15.90;;;15.70;99.90;;;;;;5043456;28;20658;-35
2023/05/10 06:43:21;;;;;;;18.75;15.40;;;15.70;99.90;;;;;;5044475;28;20314;-35
2023/05/10 06:45:48;;;;;;;21.85;16.88;;;15.70;99.90;;;;;;5044179;28;20213;-36
2023/05/10 06:48:15;;;;;;;19.63;15.70;;;15.80;99.90;;;;;;5044026;28;20249;-36
2023/05/10 06:50:45;;;;;;;18.17;15.03;;;15.80;99.90;;;;;;5045214;28;20697;-35
2023/05/10 06:53:15;;;;;;;22.53;17.07;;;15.80;99.90;;;;;;5046288;28;20600;-36
2023/05/10 06:55:42;;;;;;;20.40;15.70;;;15.80;99.90;;;;;;5046136;28;20657;-36
2023/05/10 06:58:09;;;;;;;19.73;15.63;;;15.90;99.90;;;;;;5044116;28;20241;-36
2023/05/10 07:00:40;;;;;;;20.97;14.73;;;15.90;99.90;;;;;;5044964;28;20722;-37
2023/05/10 07:03:12;;;;;;;16.40;13.10;;;15.80;99.90;;;;;;5045489;28;20448;-35
2023/05/10 07:05:40;;;;;;;20.23;13.47;;;15.90;99.90;;;;;;5044292;28;20303;-36
2023/05/10 07:08:09;;;;;;;13.77;10.83;;;15.90;99.90;;;;;;5043782;28;20607;-36
2023/05/10 07:10:36;;;;;;;7.67;6.47;;;15.90;99.90;;;;;;5043617;28;20314;-36
2023/05/10 07:13:08;;;;;;;6.63;5.60;;;15.90;99.90;;;;;;5044204;28;20222;-36
2023/05/10 07:20:13;;;;;;;9.50;6.47;;;15.90;99.90;;;;;;5026910;28;20428;-36
2023/05/10 07:22:42;;;;;;;12.23;7.00;;;15.90;99.90;;;;;;5044519;28;20622;-36
2023/05/10 07:25:14;;;;;;;12.10;6.70;;;15.90;99.90;;;;;;5043386;28;20215;-36
2023/05/10 07:27:41;;;;;;;6.43;5.73;;;15.90;99.90;;;;;;5044858;28;20204;-36
2023/05/10 07:30:09;;;;;;;9.00;6.00;;;15.90;99.90;;;;;;5025942;28;20270;-36
2023/05/10 07:32:36;;;;;;;6.73;5.83;;;15.90;99.90;;;;;;5023859;28;20197;-36
2023/05/10 07:35:04;;;;;;;7.30;5.70;;;15.90;99.90;;;;;;5024984;28;20254;-36
2023/05/10 07:37:36;;;;;;;8.37;5.60;;;15.90;99.90;;;;;;5024167;28;20197;-36
2023/05/10 07:40:06;;;;;;;10.03;5.90;;;15.90;99.90;;;;;;5024383;28;20299;-36
2023/05/10 07:42:36;;;;;;;6.17;4.47;;;15.90;99.90;;;;;;5024820;28;20230;-36
2023/05/10 07:45:03;;;;;;;8.83;4.23;;;15.90;99.90;;;;;;5025244;28;20240;-36
2023/05/10 07:47:35;;;;;;;4.70;3.20;;;15.90;99.90;;;;;;5027461;28;20262;-36
2023/05/10 07:50:02;;;;;;;5.27;3.73;;;15.90;99.90;;;;;;5043460;28;20227;-36
2023/05/10 07:52:31;;;;;;;4.30;3.40;;;15.90;99.90;;;;;;5044722;28;20203;-36
2023/05/10 07:55:01;;;;;;;8.20;4.50;;;15.90;99.90;;;;;;5026650;28;20597;-36
2023/05/10 07:57:28;;;;;;;6.60;4.60;;;15.90;99.90;;;;;;5043052;28;20490;-36
2023/05/10 07:59:57;;;;;;;4.68;4.07;;;15.80;99.90;;;;;;5026818;28;20196;-36
2023/05/10 08:02:25;;;;;;;9.67;6.63;;;15.80;99.90;;;;;;5044848;28;20305;-36
2023/05/10 08:04:52;;;;;;;9.87;6.60;;;15.80;99.90;;;;;;5037969;28;20196;-37
2023/05/10 08:07:25;;;;;;;17.07;8.23;;;15.80;99.90;;;;;;5024710;28;20230;-36
2023/05/10 08:09:54;;;;;;;11.13;7.63;;;15.70;99.90;;;;;;5025294;28;20562;-36
2023/05/10 08:12:21;;;;;;;13.60;9.33;;;15.80;99.90;;;;;;5032676;28;20625;-36
2023/05/10 08:14:48;;;;;;;14.67;9.03;;;15.70;99.90;;;;;;5044821;28;20203;-37
2023/05/10 08:17:20;;;;;;;17.97;10.40;;;15.70;99.90;;;;;;5042729;28;20205;-37
2023/05/10 08:19:53;;;;;;;14.40;9.83;;;15.60;99.90;;;;;;5044761;28;20527;-37
2023/05/10 08:22:22;;;;;;;15.87;9.77;;;15.60;99.90;;;;;;5043901;28;20319;-36
2023/05/10 08:24:49;;;;;;;13.67;10.03;;;15.70;99.90;;;;;;5027197;28;20273;-36
2023/05/10 08:27:19;;;;;;;12.95;9.23;;;15.60;99.90;;;;;;5044735;28;20212;-37
2023/05/10 08:29:48;;;;;;;13.88;8.98;;;15.60;99.90;;;;;;5044244;28;20229;-37
2023/05/10 08:32:21;;;;;;;12.73;8.03;;;15.60;99.90;;;;;;5041943;28;20227;-37
2023/05/10 08:34:53;;;;;;;17.03;8.73;;;15.60;99.90;;;;;;5042562;28;20269;-37
2023/05/10 08:37:20;;;;;;;10.48;7.60;;;15.50;99.90;;;;;;5044208;28;20203;-37
2023/05/10 08:39:47;;;;;;;10.32;7.97;;;15.50;99.90;;;;;;5043757;28;20216;-37
2023/05/10 08:42:20;;;;;;;14.10;8.70;;;15.60;99.90;;;;;;5044038;28;20200;-37
2023/05/10 08:44:53;;;;;;;13.05;8.50;;;15.50;99.90;;;;;;5043956;28;20258;-37
2023/05/10 08:47:21;;;;;;;12.75;8.63;;;15.60;99.90;;;;;;5042875;28;20201;-37
2023/05/10 08:49:53;;;;;;;9.33;7.07;;;15.60;99.90;;;;;;5046108;28;20285;-37
2023/05/10 08:52:26;;;;;;;11.00;8.13;;;15.60;99.90;;;;;;5048674;28;20231;-37
2023/05/10 08:54:56;;;;;;;10.43;7.67;;;15.60;99.90;;;;;;5046801;28;20196;-37
2023/05/10 08:57:23;;;;;;;12.00;7.65;;;15.60;99.90;;;;;;5047055;28;20355;-37
2023/05/10 08:59:50;;;;;;;10.88;8.25;;;15.60;99.90;;;;;;5048020;28;20584;-37
2023/05/10 09:02:19;;;;;;;9.90;6.93;;;15.60;99.90;;;;;;5026058;28;20263;-38
2023/05/10 09:04:52;;;;;;;14.02;7.93;;;15.60;99.90;;;;;;5026192;28;20219;-37
2023/05/10 09:07:25;;;;;;;16.53;8.40;;;15.60;99.90;;;;;;5026397;28;20278;-37
2023/05/10 09:09:55;;;;;;;9.95;6.30;;;15.60;99.90;;;;;;5027852;28;20209;-37
2023/05/10 09:12:23;;;;;;;10.60;7.47;;;15.60;99.90;;;;;;5033718;28;20228;-37
2023/05/10 09:14:58;;;;;;;10.40;7.33;;;15.60;99.90;;;;;;5047934;28;20192;-37
2023/05/10 09:17:26;;;;;;;10.35;7.07;;;15.60;99.90;;;;;;5047829;28;20234;-37
2023/05/10 09:20:04;;;;;;;9.30;6.47;;;15.60;99.90;;;;;;5047587;28;20200;-37
2023/05/10 09:22:34;;;;;;;9.90;7.30;;;15.60;99.90;;;;;;5046951;28;20206;-37
2023/05/10 09:25:17;;;;;;;9.90;6.57;;;15.60;99.90;;;;;;5047059;28;20275;-37
2023/05/10 09:27:50;;;;;;;9.50;6.83;;;15.70;99.90;;;;;;5047318;28;20291;-36
2023/05/10 09:30:29;;;;;;;8.90;6.60;;;15.70;99.90;;;;;;5044712;28;20283;-37
2023/05/10 09:32:57;;;;;;;9.68;6.57;;;15.70;99.90;;;;;;5047208;28;20540;-37
2023/05/10 09:35:27;;;;;;;7.30;5.93;;;15.70;99.90;;;;;;5047649;28;20217;-37
2023/05/10 09:38:02;;;;;;;8.20;5.73;;;15.70;99.90;;;;;;5046065;28;20215;-37
2023/05/10 09:40:32;;;;;;;9.75;5.63;;;15.70;99.90;;;;;;5047214;28;20579;-37
2023/05/10 09:43:01;;;;;;;7.13;5.20;;;15.70;99.90;;;;;;5047477;28;20697;-37
2023/05/10 09:45:30;;;;;;;7.90;5.60;;;15.70;99.90;;;;;;5047288;28;20200;-37
2023/05/10 09:48:02;;;;;;;6.97;4.93;;;15.80;99.90;;;;;;5046392;28;20208;-37
2023/05/10 09:50:30;;;;;;;5.90;4.90;;;15.70;99.90;;;;;;5046996;28;20590;-37
2023/05/10 09:53:05;;;;;;;7.57;4.77;;;15.80;99.90;;;;;;5047253;28;20200;-38
2023/05/10 09:55:44;;;;;;;7.73;5.67;;;15.80;99.90;;;;;;5046711;28;20291;-37
2023/05/10 09:58:15;;;;;;;6.28;5.20;;;15.90;99.90;;;;;;5044869;28;20481;-37
2023/05/10 10:00:43;;;;;;;6.10;5.13;;;15.90;99.90;;;;;;5046083;28;20198;-37
2023/05/10 10:03:21;;;;;;;8.20;4.85;;;15.90;99.90;;;;;;5046321;28;20239;-38
2023/05/10 10:05:52;;;;;;;5.73;4.40;;;16.00;99.90;;;;;;5045271;28;20196;-37
2023/05/10 10:08:20;;;;;;;5.30;4.53;;;16.00;99.90;;;;;;5047017;28;20258;-37
2023/05/10 10:10:50;;;;;;;5.13;4.10;;;16.00;99.90;;;;;;5046572;28;20251;-37
2023/05/10 10:13:17;;;;;;;4.75;3.30;;;16.10;99.90;;;;;;5046923;28;20208;-37
2023/05/10 10:15:52;;;;;;;3.97;3.23;;;16.10;99.90;;;;;;5045070;28;20201;-37
2023/05/10 10:18:23;;;;;;;4.93;3.30;;;16.10;99.90;;;;;;5044738;28;20226;-37
2023/05/10 10:20:54;;;;;;;3.47;3.17;;;16.10;99.90;;;;;;5045521;28;20216;-37
2023/05/10 10:23:25;;;;;;;4.03;2.70;;;16.20;99.90;;;;;;5045103;28;20196;-38
2023/05/10 10:25:55;;;;;;;3.15;2.85;;;16.20;99.90;;;;;;5044874;28;20244;-37
2023/05/10 10:28:27;;;;;;;4.23;3.17;;;16.20;99.90;;;;;;5045052;28;20218;-37
2023/05/10 10:30:59;;;;;;;4.43;2.40;;;16.30;99.90;;;;;;5046205;28;20223;-37
2023/05/10 10:33:56;;;;;;;3.53;2.83;;;16.30;99.90;;;;;;5046354;28;20654;-38
2023/05/10 10:36:26;;;;;;;3.83;2.95;;;16.30;99.90;;;;;;5046535;28;20735;-37
2023/05/10 10:38:59;;;;;;;3.30;3.00;;;16.20;99.90;;;;;;5044208;28;20196;-37
2023/05/10 10:41:54;;;;;;;3.10;2.80;;;16.20;99.90;;;;;;5044244;28;20258;-37
2023/05/10 10:44:26;;;;;;;3.00;2.70;;;16.30;99.90;;;;;;5045950;28;20771;-37
2023/05/10 10:47:07;;;;;;;2.58;2.38;;;16.30;99.90;;;;;;5044443;28;20208;-37
2023/05/10 10:49:41;;;;;;;2.42;2.17;;;16.30;99.90;;;;;;5046080;28;20192;-38
2023/05/10 10:52:32;;;;;;;4.13;2.08;;;16.30;99.90;;;;;;5044177;28;20230;-37
2023/05/10 10:55:05;;;;;;;3.13;2.38;;;16.40;99.90;;;;;;5045177;28;20207;-37
2023/05/10 10:57:52;;;;;;;2.08;1.92;;;16.40;99.90;;;;;;5043709;28;20859;-37
2023/05/10 11:00:34;;;;;;;1.67;1.57;;;16.50;99.90;;;;;;5045121;28;20573;-37
2023/05/10 11:03:19;;;;;;;1.67;1.58;;;16.50;99.90;;;;;;5045048;28;20303;-37
2023/05/10 11:05:48;;;;;;;2.13;1.50;;;16.50;99.90;;;;;;5045571;28;20258;-37
2023/05/10 11:08:17;;;;;;;2.03;1.48;;;16.60;99.90;;;;;;5045587;28;20246;-38
2023/05/10 11:10:54;;;;;;;1.60;1.40;;;16.60;99.90;;;;;;5045527;28;20232;-38
2023/05/10 11:13:36;;;;;;;1.67;1.40;;;16.70;99.90;;;;;;5025490;28;20217;-38
2023/05/10 11:16:26;;;;;;;2.20;1.60;;;16.70;99.90;;;;;;5025194;28;20295;-37
2023/05/10 11:19:09;;;;;;;1.83;1.70;;;16.70;99.90;;;;;;5024006;28;20212;-37
2023/05/10 11:21:54;;;;;;;2.47;1.17;;;16.80;99.90;;;;;;5025408;28;20653;-38
2023/05/10 11:24:27;;;;;;;2.47;1.20;;;16.80;99.90;;;;;;5023651;28;20717;-38
2023/05/10 11:26:56;;;;;;;2.10;1.33;;;16.90;99.90;;;;;;5024752;28;20866;-37
2023/05/10 11:29:28;;;;;;;1.60;1.30;;;16.90;99.90;;;;;;5025422;28;20215;-38
2023/05/10 11:32:04;;;;;;;1.20;1.10;;;17.00;99.90;;;;;;5025111;28;20310;-38
2023/05/10 11:34:34;;;;;;;5.78;1.20;;;17.10;99.90;;;;;;5025676;28;20284;-37
2023/05/10 11:37:04;;;;;;;1.93;1.07;;;17.10;99.90;;;;;;5024098;28;20687;-38
2023/05/10 11:39:33;;;;;;;1.50;1.40;;;17.20;99.90;;;;;;5008385;28;20208;-37
2023/05/10 11:42:00;;;;;;;1.00;0.90;;;17.30;99.90;;;;;;5007263;28;20682;-37
2023/05/10 11:44:31;;;;;;;1.90;1.25;;;17.30;99.90;;;;;;5023310;28;20205;-37
2023/05/10 11:47:04;;;;;;;2.30;1.25;;;17.40;99.90;;;;;;5023766;28;20256;-38
2023/05/10 11:49:31;;;;;;;2.08;1.20;;;17.40;99.90;;;;;;5024405;28;20255;-38
2023/05/10 11:52:10;;;;;;;1.55;1.10;;;17.50;99.90;;;;;;5022640;28;20319;-38
2023/05/10 11:54:44;;;;;;;1.23;1.08;;;17.60;99.90;;;;;;5024969;28;20303;-38
2023/05/10 11:57:11;;;;;;;1.38;1.13;;;17.60;99.90;;;;;;5024853;28;20232;-38
2023/05/10 11:59:38;;;;;;;1.67;1.58;;;17.60;99.90;;;;;;5015818;28;20232;-38
2023/05/10 12:02:09;;;;;;;1.75;1.65;;;17.60;99.90;;;;;;5042024;28;20223;-38
2023/05/10 12:04:37;;;;;;;5.15;1.50;;;17.70;99.90;;;;;;5043042;28;20340;-37
2023/05/10 12:07:07;;;;;;;2.08;1.75;;;17.70;99.90;;;;;;5042940;28;20609;-37
2023/05/10 12:09:36;;;;;;;2.22;2.03;;;17.70;99.90;;;;;;5026760;28;20234;-38
2023/05/10 12:12:20;;;;;;;5.18;2.40;;;17.70;99.90;;;;;;5045012;28;20681;-38
2023/05/10 12:14:52;;;;;;;2.65;2.05;;;17.70;99.90;;;;;;5044634;28;20245;-37
2023/05/10 12:17:27;;;;;;;2.45;1.90;;;17.70;99.90;;;;;;5044818;28;20291;-38
2023/05/10 12:20:14;;;;;;;2.50;2.22;;;17.80;99.90;;;;;;5042548;28;20212;-38
2023/05/10 12:23:05;;;;;;;2.20;2.00;;;17.90;99.90;;;;;;5043180;28;21008;-38
2023/05/10 12:25:39;;;;;;;2.85;2.47;;;17.90;99.90;;;;;;5048356;28;20208;-38
2023/05/10 12:28:08;;;;;;;9.85;2.90;;;17.90;99.90;;;;;;5046627;28;20307;-38
2023/05/10 12:30:39;;;;;;;3.75;2.47;;;18.00;99.90;;;;;;5046934;28;20212;-38
2023/05/10 12:33:16;;;;;;;5.70;2.97;;;18.00;99.90;;;;;;5047102;28;20290;-38
2023/05/10 12:35:48;;;;;;;3.35;2.70;;;18.00;99.90;;;;;;5046745;28;20200;-38
2023/05/10 12:38:37;;;;;;;2.78;2.50;;;18.00;99.90;;;;;;5046018;28;20307;-38
2023/05/10 12:41:09;;;;;;;4.63;2.58;;;18.00;99.90;;;;;;5046750;28;20212;-38
2023/05/10 12:43:40;;;;;;;3.08;2.67;;;18.10;99.90;;;;;;5046573;28;20791;-38
2023/05/10 12:46:10;;;;;;;3.97;2.70;;;18.10;99.90;;;;;;5046451;28;20207;-38
2023/05/10 12:48:41;;;;;;;3.05;2.63;;;18.20;99.90;;;;;;5047894;28;20712;-38
2023/05/10 12:51:19;;;;;;;2.70;2.50;;;18.30;99.90;;;;;;5047714;28;20204;-37
2023/05/10 12:53:47;;;;;;;4.75;2.67;;;18.30;99.90;;;;;;5031011;28;20216;-38
2023/05/10 12:56:18;;;;;;;3.75;2.40;;;18.40;99.90;;;;;;5029785;28;20606;-38
2023/05/10 12:58:47;;;;;;;4.32;2.60;;;18.40;99.90;;;;;;5045914;28;20270;-38
2023/05/10 13:01:17;;;;;;;3.63;2.30;;;18.40;99.90;;;;;;5047844;28;20817;-38
2023/05/10 13:03:45;;;;;;;3.30;1.65;;;18.40;99.90;;;;;;5029337;28;20683;-38
2023/05/10 13:06:15;;;;;;;4.28;2.38;;;18.40;99.90;;;;;;5048102;28;20286;-38